Flight Track Log - Related Links

Times and Time Zones

All times are in EDT time to prevent confusion due to time zone crossing. See the ASH3732 flight status page for this flight to view local times or setup timezone preferences in your user account.

Time Position Orientation Groundspeed Altitude Reporting Facility
EDT Latitude Longitude Course Direction KTS MPH feet Rate Location/Type
Sat 11:05:19 PM 41.9833 -87.8667 180° South 152 175 1,700  Level Chicago TRACON
Sat 11:06:25 PM 41.9167 -87.8667 180° South 238 274 3,600 2,204 Climbing Chicago TRACON
Sat 11:07:46 PM 41.8339 -87.8458 169° South 248 285 7,100 2,596 Climbing Chicago Center
Sat 11:08:46 PM 41.7644 -87.8231 166° South 256 295 9,700 2,380 Climbing Chicago Center
Sat 11:09:47 PM 41.6886 -87.8031 169° South 275 316 11,900 1,918 Climbing Chicago Center
Sat 11:10:48 PM 41.6069 -87.7792 168° South 297 342 13,600 1,770 Climbing Chicago Center
Sat 11:11:49 PM 41.5025 -87.7483 168° South 316 364 15,500 1,721 Climbing Chicago Center
Sat 11:12:50 PM 41.4064 -87.7253 170° South 343 395 17,100 1,377 Climbing Chicago Center
Sat 11:13:51 PM 41.3047 -87.7261 180° South 362 417 18,300 1,426 Climbing Chicago Center
Sat 11:14:52 PM 41.2011 -87.7253 180° South 368 423 20,000 1,180 Climbing Chicago Center
Sat 11:15:53 PM 41.0972 -87.7114 174° South 375 432 20,700 984 Climbing Chicago Center
Sat 11:16:54 PM 40.9897 -87.6972 174° South 386 444 22,000 1,082 Climbing Chicago Center
Sat 11:17:55 PM 40.8831 -87.6828 174° South 388 447 22,900 1,041 Climbing Chicago Center
Sat 11:18:55 PM 40.7722 -87.6672 174° South 399 459 24,100 1,041 Climbing Chicago Center
Sat 11:19:56 PM 40.6622 -87.6531 174° South 400 460 25,000 1,033 Climbing Chicago Center
Sat 11:20:57 PM 40.5517 -87.6383 174° South 403 464 26,200 1,033 Climbing Chicago Center
Sat 11:21:58 PM 40.4425 -87.6225 174° South 397 457 27,100 885 Climbing Chicago Center
Sat 11:22:59 PM 40.3317 -87.6078 174° South 403 464 28,000 836 Climbing Chicago Center
Sat 11:24:00 PM 40.2314 -87.5508 157° South 398 458 28,800 787 Climbing Chicago Center
Sat 11:25:01 PM 40.1219 -87.4847 155° Southeast 393 452 29,600 783 Climbing Chicago Center
Sat 11:25:55 PM 40.0203 -87.4203 154° Southeast 399 459 30,300 470 Climbing Indianapolis Center
Sat 11:26:56 PM 39.9186 -87.3589 155° Southeast 404 465 30,500 787 Climbing Indianapolis Center
Sat 11:27:57 PM 39.8136 -87.3067 159° South 406 467 31,900 1,140 Climbing Indianapolis Center
Sat 11:28:57 PM 39.7103 -87.2547 159° South 403 464 32,800 545 Climbing Indianapolis Center
Sat 11:29:58 PM 39.6075 -87.2031 159° South 400 460 33,000 298 Climbing Indianapolis Center
Sat 11:30:58 PM 39.5000 -87.1489 159° South 413 475 33,400 545 Climbing Indianapolis Center
Sat 11:31:59 PM 39.3933 -87.0953 159° South 416 479 34,100 689 Climbing Indianapolis Center
Sat 11:33:00 PM 39.2878 -87.0428 159° South 411 473 34,800 446 Climbing Indianapolis Center
Sat 11:34:00 PM 39.1831 -86.9897 159° South 408 470 35,000 99 Climbing Indianapolis Center
Sat 11:35:01 PM 39.0681 -86.9336 159° South 408 470 35,000  Level Indianapolis Center
Sat 11:36:01 PM 38.9639 -86.8819 159° South 402 463 35,000  Level Indianapolis Center
Sat 11:37:02 PM 38.8600 -86.8303 159° South 398 458 35,000  Level Indianapolis Center
Sat 11:38:02 PM 38.7536 -86.7769 159° South 405 466 35,000  Level Indianapolis Center
Sat 11:39:03 PM 38.6447 -86.7233 159° South 413 475 35,000  Level Indianapolis Center
Sat 11:40:03 PM 38.5336 -86.6703 160° South 418 481 35,000  Level Indianapolis Center
Sat 11:41:04 PM 38.4236 -86.6156 159° South 418 481 35,000  Level Indianapolis Center
Sat 11:42:04 PM 38.3150 -86.5633 159° South 414 476 35,000  Level Indianapolis Center
Sat 11:43:05 PM 38.2083 -86.5125 159° South 407 468 35,000  Level Indianapolis Center
Sat 11:44:05 PM 38.1031 -86.4614 159° South 402 463 35,000  Level Indianapolis Center
Sat 11:45:06 PM 37.9992 -86.4111 159° South 395 455 35,000  Level Indianapolis Center
Sat 11:46:06 PM 37.8961 -86.3611 159° South 395 455 35,000  Level Indianapolis Center
Sat 11:47:06 PM 37.8050 -86.3178 159° South 390 449 35,000  Level Indianapolis Center
Sat 11:48:07 PM 37.7025 -86.2708 160° South 389 448 35,000  Level Indianapolis Center
Sat 11:49:07 PM 37.5994 -86.2219 159° South 390 449 35,000  Level Indianapolis Center
Sat 11:50:08 PM 37.4972 -86.1736 159° South 389 448 35,000  Level Indianapolis Center
Sat 11:51:08 PM 37.3947 -86.1247 159° South 388 447 35,000  Level Indianapolis Center
Sat 11:52:09 PM 37.2922 -86.0764 159° South 388 447 35,000  Level Indianapolis Center
Sat 11:53:09 PM 37.1881 -86.0272 159° South 394 453 35,000  Level Indianapolis Center
Sat 11:54:09 PM 37.0853 -85.9781 159° South 392 451 35,000  Level Indianapolis Center
Sat 11:55:10 PM 36.9808 -85.9306 160° South 394 453 35,000  Level Indianapolis Center
Sat 11:56:10 PM 36.8758 -85.8811 159° South 399 459 35,000  Level Indianapolis Center
Sat 11:57:11 PM 36.7714 -85.8328 160° South 397 457 35,000  Level Indianapolis Center
Sat 11:58:11 PM 36.6628 -85.7822 160° South 393 452 35,000  Level Indianapolis Center
Sat 11:59:11 PM 36.5581 -85.7333 159° South 400 460 35,000  Level Indianapolis Center
Sun 12:00:12 AM 36.4528 -85.6861 160° South 402 463 35,000  Level Indianapolis Center
Sun 12:01:12 AM 36.3489 -85.6378 159° South 401 461 35,000  Level Indianapolis Center
Sun 12:02:12 AM 36.2439 -85.5900 160° South 401 461 35,000  Level Indianapolis Center
Sun 12:04:19 AM 36.0267 -85.4944 160° South 397 457 35,000  Level Atlanta Center
Sun 12:05:19 AM 35.9208 -85.4464 160° South 403 464 35,000  Level Atlanta Center
Sun 12:06:19 AM 35.8025 -85.3933 160° South 408 470 35,000  Level Atlanta Center
Sun 12:07:19 AM 35.6967 -85.3453 160° South 408 470 35,000  Level Atlanta Center
Sun 12:08:19 AM 35.5908 -85.2978 160° South 408 470 35,000  Level Atlanta Center
Sun 12:09:19 AM 35.4828 -85.2478 159° South 408 470 35,000  Level Atlanta Center
Sun 12:10:19 AM 35.3747 -85.2003 160° South 408 470 35,000  Level Atlanta Center
Sun 12:11:19 AM 35.2667 -85.1531 160° South 408 470 35,000  Level Atlanta Center
Sun 12:13:19 AM 35.0464 -85.0561 160° South 413 475 35,000  Level Atlanta Center
Sun 12:14:19 AM 34.9383 -85.0092 160° South 413 475 35,000  Level Atlanta Center
Sun 12:15:19 AM 34.8322 -84.9597 159° South 413 475 35,000  Level Atlanta Center
Sun 12:16:19 AM 34.7219 -84.9131 161° South 419 482 35,000  Level Atlanta Center
Sun 12:17:19 AM 34.6158 -84.8642 159° South 419 482 35,000  Level Atlanta Center
Sun 12:18:19 AM 34.5056 -84.8153 160° South 412 474 35,000  Level Atlanta Center
Sun 12:19:19 AM 34.3933 -84.7664 160° South 417 480 35,000 -250 Level Atlanta Center
Sun 12:20:19 AM 34.2808 -84.7175 160° South 426 490 34,500 -900 Descending Atlanta Center
Sun 12:21:19 AM 34.1808 -84.6742 160° South 426 490 33,200 -750 Descending Atlanta Center
Sun 12:22:19 AM 34.0517 -84.6231 162° South 437 503 33,000 -100 Descending Atlanta Center
Sun 12:23:19 AM 33.9392 -84.5722 159° South 437 503 33,000  Level Atlanta Center
Sun 12:24:19 AM 33.8289 -84.5239 160° South 437 503 33,000  Level Atlanta Center
Sun 12:25:19 AM 33.7289 -84.4783 159° South 430 495 33,000  Level Atlanta Center
Sun 12:26:19 AM 33.6100 -84.4253 160° South 430 495 33,000  Level Atlanta Center
Sun 12:27:19 AM 33.5058 -84.3328 143° Southeast 430 495 33,000  Level Atlanta Center
Sun 12:28:19 AM 33.4058 -84.2503 145° Southeast 441 507 33,000  Level Atlanta Center
Sun 12:29:19 AM 33.3161 -84.1756 145° Southeast 441 507 33,000  Level Atlanta Center
Sun 12:30:19 AM 33.2181 -84.0908 144° Southeast 441 507 33,000  Level Atlanta Center
Sun 12:31:19 AM 33.1181 -84.0092 146° Southeast 447 514 33,000  Level Atlanta Center
Sun 12:32:19 AM 33.0114 -83.9150 143° Southeast 442 509 33,000  Level Atlanta Center
Sun 12:33:19 AM 32.9133 -83.8308 144° Southeast 442 509 33,000  Level Atlanta Center
Sun 12:34:19 AM 32.8108 -83.7497 146° Southeast 442 509 33,000  Level Atlanta Center
Sun 12:35:19 AM 32.7103 -83.6661 145° Southeast 447 514 33,000  Level Atlanta Center
Sun 12:37:25 AM 32.5181 -83.4764 140° Southeast 452 520 33,000  Level Jacksonville Center
Sun 12:38:25 AM 32.4267 -83.3822 139° Southeast 452 520 33,000  Level Jacksonville Center
Sun 12:39:25 AM 32.3289 -83.2858 140° Southeast 452 520 33,000  Level Jacksonville Center
Sun 12:40:25 AM 32.2331 -83.1897 140° Southeast 452 520 33,000  Level Jacksonville Center
Sun 12:41:25 AM 32.1350 -83.0936 140° Southeast 452 520 33,000  Level Jacksonville Center
Sun 12:42:25 AM 32.0411 -83.0003 140° Southeast 452 520 33,000  Level Jacksonville Center
Sun 12:43:25 AM 31.9411 -82.9047 141° Southeast 452 520 33,000  Level Jacksonville Center
Sun 12:44:25 AM 31.8450 -82.8094 140° Southeast 452 520 33,000 -300 Level Jacksonville Center
Sun 12:45:25 AM 31.7467 -82.7117 140° Southeast 452 520 32,400 -1,250 Descending Jacksonville Center
Sun 12:46:25 AM 31.6506 -82.6217 141° Southeast 452 520 30,500 -1,950 Descending Jacksonville Center
Sun 12:47:25 AM 31.5522 -82.5244 140° Southeast 452 520 28,500 -2,050 Descending Jacksonville Center
Sun 12:48:25 AM 31.4475 -82.4494 149° Southeast 452 520 26,400 -2,400 Descending Jacksonville Center
Sun 12:49:25 AM 31.3303 -82.3867 155° Southeast 437 503 23,700 -2,600 Descending Jacksonville Center
Sun 12:50:25 AM 31.2258 -82.3289 155° Southeast 420 483 21,200 -2,500 Descending Jacksonville Center
Sun 12:51:25 AM 31.1211 -82.2736 156° South 420 483 18,700 -2,516 Descending Jacksonville Center
Sun 12:51:58 AM 31.0644 -82.2378 152° Southeast 409 471 17,300 -2,460 Descending Jacksonville Center
Sun 12:53:05 AM 30.9597 -82.1803 155° Southeast 387 445 14,600 -2,438 Descending Jacksonville Center
Sun 12:54:06 AM 30.8761 -82.1350 155° Southeast 328 377 12,100 -2,281 Descending Jacksonville Center
Sun 12:55:06 AM 30.8006 -82.0897 153° Southeast 273 314 10,000 -2,331 Descending Jacksonville Center
Sun 12:56:07 AM 30.7294 -82.0517 155° Southeast 264 304 7,400 -2,459 Descending Jacksonville Center
Sun 12:57:08 AM 30.6622 -82.0136 154° Southeast 260 299 5,000 -2,331 Descending Jacksonville Center
Sun 12:58:08 AM 30.5994 -81.9803 155° Southeast 244 281 2,700 -1,488 Descending Jacksonville Center
Sun 12:59:09 AM 30.5386 -81.9469 155° Southeast 237 273 2,000 -347 Descending Jacksonville Center
Sun 01:00:09 AM 30.4903 -81.9089 146° Southeast 228 262 2,000  Level Jacksonville Center
Sun 01:01:10 AM 30.4731 -81.8369 106° East 217 250 2,000 -344 Level Jacksonville Center
Sun 01:02:11 AM 30.4747 -81.7814 88° East 131 151 1,300 -595 Descending Jacksonville Center
Sun 01:03:11 AM 30.4847 -81.7378 75° East 139 160 800 -500 Descending Jacksonville Center
Sun 01:05:00 AM 30.4833 -81.6833 99° East  Level FlightAware Approximate
Sun 01:12:00 AM 30.4941 -81.6879 99° East  Level Estimated

Login

Don't have an account? Register now (free) for customized features, flight alerts, and more!